createdAt,value
2022-10-04T00:02:30.045Z,57.78
2022-10-04T00:05:34.984Z,57.72
2022-10-04T00:08:43.350Z,57.85
2022-10-04T00:11:48.877Z,57.86
2022-10-04T00:14:53.560Z,57.82
2022-10-04T00:18:08.904Z,57.78
2022-10-04T00:21:13.065Z,57.82
2022-10-04T00:24:22.912Z,57.87
2022-10-04T00:27:28.078Z,57.83
2022-10-04T00:30:38.055Z,57.78
2022-10-04T00:33:42.307Z,57.84
2022-10-04T00:36:56.584Z,57.89
2022-10-04T00:40:04.501Z,57.91
2022-10-04T00:43:11.094Z,57.78
2022-10-04T00:46:17.909Z,57.75
2022-10-04T00:49:24.548Z,57.77
2022-10-04T00:52:33.556Z,57.85
2022-10-04T00:55:41.178Z,57.63
2022-10-04T00:58:51.816Z,57.69
2022-10-04T01:02:00.648Z,57.75
2022-10-04T01:05:07.099Z,57.68
2022-10-04T01:08:15.471Z,57.69
2022-10-04T01:11:22.192Z,57.68
2022-10-04T01:14:36.641Z,57.78
2022-10-04T01:17:39.501Z,57.87
2022-10-04T01:20:53.883Z,57.82
2022-10-04T01:24:18.793Z,57.64
2022-10-04T01:27:37.542Z,57.70
2022-10-04T01:30:40.486Z,57.69
2022-10-04T01:33:43.373Z,57.69
2022-10-04T01:36:48.676Z,57.72
2022-10-04T01:39:52.997Z,57.57
2022-10-04T01:43:02.004Z,57.77
2022-10-04T01:46:11.640Z,57.73
2022-10-04T01:49:20.345Z,57.75
2022-10-04T01:52:29.044Z,57.71
2022-10-04T01:55:37.083Z,57.67
2022-10-04T01:58:44.412Z,57.61
2022-10-04T02:01:55.859Z,57.63
2022-10-04T02:05:00.565Z,57.67
2022-10-04T02:08:07.363Z,57.60
2022-10-04T02:11:11.657Z,57.65
2022-10-04T02:14:18.496Z,57.85
2022-10-04T02:17:24.371Z,57.72
2022-10-04T02:20:28.285Z,57.59
2022-10-04T02:23:31.393Z,57.72
2022-10-04T02:26:35.715Z,57.66
2022-10-04T02:29:38.738Z,57.61
2022-10-04T02:32:58.414Z,57.55
2022-10-04T02:36:02.599Z,57.48
2022-10-04T02:39:11.383Z,57.76
2022-10-04T02:42:21.715Z,57.75
2022-10-04T02:45:30.354Z,57.70
2022-10-04T02:48:39.835Z,57.77
2022-10-04T02:51:50.409Z,57.66
2022-10-04T02:55:01.029Z,57.58
2022-10-04T02:58:12.280Z,57.47
2022-10-04T03:01:25.556Z,57.61
2022-10-04T03:04:30.337Z,57.55
2022-10-04T03:07:35.493Z,57.61
2022-10-04T03:10:38.351Z,57.68
2022-10-04T03:13:47.287Z,57.61
2022-10-04T03:16:53.760Z,57.51
2022-10-04T03:19:58.180Z,57.51
2022-10-04T03:23:01.992Z,57.53
2022-10-04T03:26:19.163Z,57.46
2022-10-04T03:29:26.110Z,57.52
2022-10-04T03:32:30.715Z,57.67
2022-10-04T03:35:36.445Z,57.63
2022-10-04T03:38:40.170Z,57.71
2022-10-04T03:41:44.741Z,57.64
2022-10-04T03:44:54.053Z,57.56
2022-10-04T03:48:04.976Z,57.45
2022-10-04T03:51:14.579Z,57.45
2022-10-04T03:54:23.012Z,57.58
2022-10-04T03:57:26.377Z,57.54
2022-10-04T04:00:30.828Z,57.61
2022-10-04T04:03:43.578Z,57.67
2022-10-04T04:07:03.534Z,57.69
2022-10-04T04:10:18.728Z,57.62
2022-10-04T04:13:28.238Z,57.67
2022-10-04T04:16:32.923Z,57.49
2022-10-04T04:19:36.940Z,57.43
2022-10-04T04:22:41.745Z,57.47
2022-10-04T04:25:48.379Z,57.52
2022-10-04T04:28:53.085Z,57.62
2022-10-04T04:32:01.622Z,57.61
2022-10-04T04:35:08.455Z,57.54
2022-10-04T04:38:21.901Z,57.54
2022-10-04T04:41:26.248Z,57.62
2022-10-04T04:44:29.701Z,57.46
2022-10-04T04:47:40.697Z,57.49
2022-10-04T04:50:48.886Z,57.51
2022-10-04T04:53:54.073Z,57.62
2022-10-04T04:56:58.498Z,57.29
2022-10-04T05:00:03.056Z,57.53
2022-10-04T05:03:09.142Z,57.45
2022-10-04T05:06:26.467Z,57.61
2022-10-04T05:09:34.460Z,57.53
2022-10-04T05:12:37.436Z,57.50
2022-10-04T05:15:42.117Z,57.38
2022-10-04T05:18:47.335Z,57.39
2022-10-04T05:21:52.796Z,57.47
2022-10-04T05:25:00.512Z,57.47
2022-10-04T05:28:03.526Z,57.46
2022-10-04T05:31:33.283Z,57.49
2022-10-04T05:34:41.036Z,57.53
2022-10-04T05:37:56.505Z,57.48
2022-10-04T05:41:06.850Z,57.34
2022-10-04T05:44:27.280Z,57.55
2022-10-04T05:47:32.250Z,57.34
2022-10-04T05:50:40.626Z,57.44
2022-10-04T05:53:44.180Z,57.48
2022-10-04T05:57:03.982Z,57.34
2022-10-04T06:00:15.840Z,57.46
2022-10-04T06:03:32.140Z,57.33
2022-10-04T06:06:47.013Z,57.51
2022-10-04T06:10:03.227Z,57.78
2022-10-04T06:13:18.055Z,57.85
2022-10-04T06:16:31.917Z,57.94
2022-10-04T06:19:58.113Z,57.71
2022-10-04T06:23:07.038Z,57.61
2022-10-04T06:26:15.174Z,57.65
2022-10-04T06:29:22.353Z,57.79
2022-10-04T06:33:01.425Z,57.58
2022-10-04T06:36:31.080Z,57.36
2022-10-04T06:40:13.561Z,57.56
2022-10-04T06:43:40.024Z,57.61
2022-10-04T06:46:49.120Z,57.44
2022-10-04T06:49:57.890Z,57.36
2022-10-04T06:53:21.670Z,57.58
2022-10-04T06:56:48.001Z,57.57
2022-10-04T07:00:04.467Z,57.44
2022-10-04T07:03:13.747Z,57.68
2022-10-04T07:06:25.611Z,57.59
2022-10-04T07:09:29.631Z,57.42
2022-10-04T07:12:36.496Z,57.52
2022-10-04T07:15:46.837Z,57.54
2022-10-04T07:18:58.661Z,57.56
2022-10-04T07:22:15.172Z,57.54
2022-10-04T07:25:23.896Z,57.61
2022-10-04T07:28:49.661Z,57.68
2022-10-04T07:32:04.170Z,57.70
2022-10-04T07:35:19.560Z,57.72
2022-10-04T07:38:28.355Z,57.70
2022-10-04T07:41:35.407Z,57.78
2022-10-04T07:44:43.253Z,57.71
2022-10-04T07:47:46.349Z,57.86
2022-10-04T07:51:00.007Z,57.86
2022-10-04T07:54:05.958Z,57.84
2022-10-04T07:57:16.129Z,57.90
2022-10-04T08:00:23.352Z,57.87
2022-10-04T08:03:49.186Z,57.99
2022-10-04T08:06:58.710Z,57.93
2022-10-04T08:10:09.542Z,58.16
2022-10-04T08:13:23.473Z,57.99
2022-10-04T08:16:36.922Z,57.88
2022-10-04T08:19:54.678Z,58.07
2022-10-04T08:23:08.716Z,57.98
2022-10-04T08:26:39.187Z,58.02
2022-10-04T08:30:02.184Z,57.96
2022-10-04T08:33:13.263Z,58.02
2022-10-04T08:36:25.233Z,58.04
2022-10-04T08:39:45.493Z,58.03
2022-10-04T08:43:20.932Z,58.12
2022-10-04T08:47:00.762Z,58.63
2022-10-04T08:50:55.426Z,58.86
2022-10-04T08:54:35.440Z,59.49
2022-10-04T08:58:01.589Z,59.42
2022-10-04T09:01:40.204Z,59.44
2022-10-04T09:05:23.436Z,59.46
2022-10-04T09:09:05.259Z,59.33
2022-10-04T09:12:34.317Z,59.40
2022-10-04T09:16:14.361Z,59.32
2022-10-04T09:19:44.310Z,59.14
2022-10-04T09:22:49.959Z,58.86
2022-10-04T09:26:12.686Z,59.13
2022-10-04T09:29:37.433Z,59.17
2022-10-04T09:33:12.812Z,58.81
2022-10-04T09:36:40.657Z,58.52
2022-10-04T09:40:22.236Z,58.24
2022-10-04T09:43:45.718Z,58.03
2022-10-04T09:47:01.903Z,57.92
2022-10-04T09:50:51.489Z,58.08
2022-10-04T09:54:16.663Z,57.99
2022-10-04T09:57:29.033Z,58.27
2022-10-04T10:00:38.481Z,58.43
2022-10-04T10:04:02.255Z,58.42
2022-10-04T10:07:18.117Z,58.62
2022-10-04T10:10:48.719Z,58.54
2022-10-04T10:14:26.208Z,58.53
2022-10-04T10:17:40.146Z,58.71
2022-10-04T10:21:05.542Z,58.56
2022-10-04T10:24:39.494Z,58.48
2022-10-04T10:28:04.189Z,58.45
2022-10-04T10:31:23.306Z,58.39
2022-10-04T10:35:26.099Z,58.28
2022-10-04T10:38:49.588Z,58.40
2022-10-04T10:42:09.375Z,58.38
2022-10-04T10:45:26.493Z,58.24
2022-10-04T10:48:43.881Z,58.38
2022-10-04T10:52:14.858Z,58.32
2022-10-04T10:55:54.300Z,58.36
2022-10-04T10:59:41.766Z,58.31
2022-10-04T11:03:13.106Z,58.36
2022-10-04T11:06:38.853Z,58.22
2022-10-04T11:10:14.656Z,58.35
2022-10-04T11:14:04.640Z,58.22
2022-10-04T11:17:23.663Z,58.01
2022-10-04T11:21:06.798Z,58.16
2022-10-04T11:24:39.904Z,58.02
2022-10-04T11:27:51.830Z,58.00
2022-10-04T11:31:40.579Z,58.02
2022-10-04T11:35:15.703Z,57.84
2022-10-04T11:38:35.695Z,57.93
2022-10-04T11:41:51.608Z,57.95
2022-10-04T11:45:19.580Z,57.95
2022-10-04T11:48:35.114Z,57.98
2022-10-04T11:52:27.153Z,57.91
2022-10-04T11:55:58.438Z,57.89
2022-10-04T11:59:27.371Z,57.87
2022-10-04T12:02:56.702Z,57.80
2022-10-04T12:06:15.670Z,57.87
2022-10-04T12:09:29.500Z,57.84
2022-10-04T12:13:05.922Z,57.62
2022-10-04T12:16:47.471Z,57.82
2022-10-04T12:20:28.722Z,57.90
2022-10-04T12:23:54.249Z,57.64
2022-10-04T12:27:23.711Z,57.59
2022-10-04T12:30:44.473Z,57.75
2022-10-04T12:33:55.093Z,57.68
2022-10-04T12:37:17.553Z,57.70
2022-10-04T12:40:33.242Z,57.74
2022-10-04T12:43:45.479Z,57.66
2022-10-04T12:47:01.646Z,57.54
2022-10-04T12:50:15.911Z,57.55
2022-10-04T12:53:31.941Z,57.64
2022-10-04T12:56:47.153Z,57.59
2022-10-04T13:00:00.311Z,57.58
2022-10-04T13:03:23.960Z,57.54
2022-10-04T13:06:39.982Z,57.55
2022-10-04T13:10:22.362Z,58.69
2022-10-04T13:13:42.176Z,59.89
2022-10-04T13:20:32.567Z,58.90
2022-10-04T13:23:49.667Z,58.90
2022-10-04T13:26:59.709Z,58.74
2022-10-04T13:30:08.570Z,58.67
2022-10-04T13:33:26.836Z,58.60
2022-10-04T13:36:39.615Z,58.52
2022-10-04T13:40:18.928Z,58.38
2022-10-04T13:44:07.906Z,58.30
2022-10-04T13:47:27.755Z,58.35
2022-10-04T13:50:48.988Z,58.31
2022-10-04T13:54:16.771Z,58.20
2022-10-04T13:57:25.369Z,58.22
2022-10-04T14:00:52.229Z,58.17
2022-10-04T14:04:08.124Z,58.04
2022-10-04T14:07:48.978Z,57.89
2022-10-04T14:11:21.399Z,57.78
2022-10-04T14:14:46.822Z,57.79
2022-10-04T14:18:27.260Z,57.63
2022-10-04T14:22:19.396Z,57.53
2022-10-04T14:25:50.194Z,57.39
2022-10-04T14:29:28.901Z,57.31
2022-10-04T14:33:07.807Z,57.29
2022-10-04T14:36:58.043Z,57.39
2022-10-04T14:40:20.176Z,57.34
2022-10-04T14:43:59.671Z,57.42
2022-10-04T14:47:17.593Z,57.19
2022-10-04T14:50:27.642Z,57.39
2022-10-04T14:53:38.055Z,57.86
2022-10-04T14:56:59.250Z,58.03
2022-10-04T15:00:13.034Z,58.27
2022-10-04T15:03:31.798Z,58.67
2022-10-04T15:06:43.288Z,58.57
2022-10-04T15:10:04.198Z,58.33
2022-10-04T15:13:20.049Z,57.99
2022-10-04T15:16:37.862Z,57.98
2022-10-04T15:20:05.040Z,58.01
2022-10-04T15:23:15.926Z,57.93
2022-10-04T15:26:51.648Z,57.73
2022-10-04T15:30:03.962Z,57.65
2022-10-04T15:33:19.999Z,57.53
2022-10-04T15:36:54.348Z,57.44
2022-10-04T15:40:33.670Z,57.47
2022-10-04T15:43:43.761Z,57.43
2022-10-04T15:46:50.524Z,57.36
2022-10-04T15:50:04.257Z,57.39
2022-10-04T15:53:26.807Z,57.32
2022-10-04T15:56:42.666Z,57.29
2022-10-04T15:59:53.604Z,57.40
2022-10-04T16:03:14.156Z,57.36
2022-10-04T16:06:24.405Z,57.31
2022-10-04T16:09:39.711Z,57.60
2022-10-04T16:13:07.254Z,57.45
2022-10-04T16:16:51.886Z,57.51
2022-10-04T16:20:15.887Z,57.36
2022-10-04T16:23:28.849Z,57.55
2022-10-04T16:27:11.415Z,57.34
2022-10-04T16:30:27.114Z,57.43
2022-10-04T16:33:38.262Z,57.43
2022-10-04T16:36:50.388Z,57.63
2022-10-04T16:40:00.513Z,57.45
2022-10-04T16:43:07.840Z,57.44
2022-10-04T16:46:23.055Z,57.44
2022-10-04T16:49:32.540Z,57.47
2022-10-04T16:52:50.913Z,57.53
2022-10-04T16:55:55.940Z,57.50
2022-10-04T16:59:01.744Z,57.63
2022-10-04T17:02:34.377Z,57.48
2022-10-04T17:05:56.233Z,57.53
2022-10-04T17:09:16.593Z,57.58
2022-10-04T17:12:25.230Z,57.38
2022-10-04T17:15:50.193Z,57.38
2022-10-04T17:19:15.835Z,57.74
2022-10-04T17:22:30.353Z,57.72
2022-10-04T17:25:42.911Z,57.73
2022-10-04T17:28:51.981Z,57.56
2022-10-04T17:31:59.931Z,57.45
2022-10-04T17:35:24.387Z,57.68
2022-10-04T17:38:35.159Z,58.57
2022-10-04T17:41:51.846Z,58.34
2022-10-04T17:45:20.259Z,57.93
2022-10-04T17:48:42.848Z,57.91
2022-10-04T17:52:07.979Z,57.80
2022-10-04T17:55:18.070Z,57.56
2022-10-04T17:58:25.893Z,57.59
2022-10-04T18:01:34.022Z,57.68
2022-10-04T18:04:46.555Z,57.51
2022-10-04T18:07:57.688Z,57.68
2022-10-04T18:11:03.602Z,57.56
2022-10-04T18:14:13.712Z,57.62
2022-10-04T18:17:28.545Z,57.52
2022-10-04T18:20:35.227Z,57.69
2022-10-04T18:23:40.370Z,57.72
2022-10-04T18:26:56.760Z,57.65
2022-10-04T18:30:11.178Z,57.61
2022-10-04T18:33:16.270Z,57.58
2022-10-04T18:36:22.709Z,57.63
2022-10-04T18:39:26.937Z,57.65
2022-10-04T18:42:33.443Z,57.74
2022-10-04T18:45:37.257Z,57.67
2022-10-04T18:48:44.188Z,57.63
2022-10-04T18:51:58.165Z,57.59
2022-10-04T18:55:13.514Z,57.55
2022-10-04T18:58:45.828Z,57.42
2022-10-04T19:02:01.833Z,57.58
2022-10-04T19:05:14.146Z,57.71
2022-10-04T19:08:31.622Z,57.81
2022-10-04T19:11:41.570Z,57.73
2022-10-04T19:14:55.657Z,57.91
2022-10-04T19:18:13.146Z,57.82
2022-10-04T19:21:25.408Z,58.03
2022-10-04T19:24:54.118Z,58.09
2022-10-04T19:28:05.626Z,58.10
2022-10-04T19:31:18.729Z,57.95
2022-10-04T19:34:30.118Z,57.91
2022-10-04T19:37:38.753Z,57.87
2022-10-04T19:40:49.201Z,58.07
2022-10-04T19:43:59.694Z,58.02
2022-10-04T19:47:08.328Z,58.12
2022-10-04T19:50:19.488Z,58.05
2022-10-04T19:53:28.101Z,58.20
2022-10-04T19:56:36.922Z,58.10
2022-10-04T19:59:43.437Z,58.21
2022-10-04T20:02:48.913Z,58.41
2022-10-04T20:05:53.729Z,58.49
2022-10-04T20:09:02.793Z,58.47
2022-10-04T20:12:06.469Z,58.22
2022-10-04T20:15:39.029Z,58.30
2022-10-04T20:19:19.314Z,58.21
2022-10-04T20:22:57.238Z,58.24
2022-10-04T20:26:01.485Z,58.24
2022-10-04T20:29:04.365Z,58.37
2022-10-04T20:32:08.402Z,58.34
2022-10-04T20:35:13.982Z,58.26
2022-10-04T20:38:32.088Z,58.37
2022-10-04T20:42:20.176Z,58.26
2022-10-04T20:45:30.352Z,58.34
2022-10-04T20:48:33.334Z,58.54
2022-10-04T20:51:36.497Z,58.47
2022-10-04T20:54:40.612Z,58.51
2022-10-04T20:57:43.405Z,58.36
2022-10-04T21:00:52.799Z,58.50
2022-10-04T21:04:13.560Z,58.33
2022-10-04T21:07:19.638Z,58.27
2022-10-04T21:10:23.888Z,58.28
2022-10-04T21:13:57.977Z,58.29
2022-10-04T21:17:02.929Z,58.45
2022-10-04T21:20:13.863Z,58.20
2022-10-04T21:23:24.076Z,58.40
2022-10-04T21:26:28.224Z,58.45
2022-10-04T21:29:31.049Z,58.50
2022-10-04T21:32:36.398Z,58.45
2022-10-04T21:35:39.165Z,58.51
2022-10-04T21:38:42.273Z,58.34
2022-10-04T21:41:46.453Z,58.39
2022-10-04T21:44:49.282Z,58.31
2022-10-04T21:47:52.147Z,58.33
2022-10-04T21:50:56.075Z,58.26
2022-10-04T21:53:58.852Z,58.35
2022-10-04T21:57:03.021Z,58.42
2022-10-04T22:00:07.715Z,58.27
2022-10-04T22:03:15.020Z,58.46
2022-10-04T22:06:17.957Z,58.38
2022-10-04T22:09:20.721Z,58.32
2022-10-04T22:12:24.908Z,58.39
2022-10-04T22:15:29.175Z,58.38
2022-10-04T22:18:32.748Z,58.36
2022-10-04T22:21:35.573Z,58.40
2022-10-04T22:24:38.800Z,58.40
2022-10-04T22:27:43.287Z,58.41
2022-10-04T22:30:46.084Z,58.34
2022-10-04T22:33:50.956Z,58.22
2022-10-04T22:36:56.607Z,58.36
2022-10-04T22:39:59.709Z,58.27
2022-10-04T22:43:04.324Z,58.35
2022-10-04T22:46:14.571Z,58.14
2022-10-04T22:49:20.656Z,58.22
2022-10-04T22:52:25.277Z,58.31
2022-10-04T22:55:28.079Z,58.31
2022-10-04T22:58:32.973Z,58.21
2022-10-04T23:01:35.848Z,58.23
2022-10-04T23:04:38.718Z,58.17
2022-10-04T23:07:41.659Z,58.31
2022-10-04T23:10:44.996Z,58.21
2022-10-04T23:13:49.161Z,58.29
2022-10-04T23:16:52.005Z,58.28
2022-10-04T23:19:57.558Z,58.18
2022-10-04T23:23:00.799Z,58.31
2022-10-04T23:26:03.611Z,58.21
2022-10-04T23:29:18.508Z,58.17
2022-10-04T23:32:21.341Z,58.23
2022-10-04T23:35:25.840Z,58.24
2022-10-04T23:38:30.405Z,58.10
2022-10-04T23:41:33.190Z,58.19
2022-10-04T23:44:39.172Z,58.18
2022-10-04T23:47:41.991Z,58.28
2022-10-04T23:50:44.831Z,58.26
2022-10-04T23:53:49.831Z,58.17
2022-10-04T23:56:53.501Z,58.20
2022-10-04T23:59:59.789Z,58.18
